Aviation Digital Data Service (ADDS)

Output produced by METARs form (0452 UTC 21 September 2018)
found at http://www.aviationweather.gov/metar/data/
 
KPIT 210257Z 2103/2206 16005KT P6SM SKC 
     FM211600 22010G20KT P6SM SCT035 
     FM212200 23012G25KT P6SM VCTS SCT040CB 
     FM220200 25012G20KT P6SM VCSH BKN015
       
KAGC 202320Z 2100/2124 16005KT P6SM SKC 
     FM211600 22010G20KT P6SM SCT035 
     FM212300 23012G25KT P6SM VCTS SCT040CB
       
KBVI 202320Z 2100/2124 16005KT P6SM SKC 
     FM211600 22010G20KT P6SM SCT035 
     FM212200 23012G25KT P6SM VCTS SCT040CB AMD NOT SKED 2102/2112
       
KDUJ 202320Z 2100/2124 20002KT P6SM SKC 
     FM211600 20010G20KT P6SM SCT040 
     FM212200 23012G25KT P6SM VCTS SCT040CB
       
KFKL 202320Z 2100/2124 15006KT P6SM SKC 
     FM211600 20010G20KT P6SM SCT035 
     FM212200 23012G25KT P6SM VCTS SCT040CB
       
KHLG 202320Z 2100/2124 16005KT P6SM SKC 
     FM211600 22010G20KT P6SM SCT035 
     FM212300 23012G25KT P6SM VCTS SCT040CB
       
KLBE 202320Z 2100/2124 18004KT P6SM SKC 
     FM211600 22010G20KT P6SM SCT040
       
KMGW 202320Z 2100/2124 15004KT P6SM SKC 
     FM211600 21010G20KT P6SM SCT040
       
KZZV 202320Z 2100/2124 18005KT P6SM SCT100 
     FM211600 22013G20KT P6SM SCT035 BKN250 
     FM212300 23012G25KT P6SM VCTS SCT040CB